Aeroporto :
LOGIN :

Iscrizione | Disclaimer

   EN    FR    IT 

 










Sommario :    VFR   VFR Marginale   IFR   IFR Intensivo   IFR Molto Intensivo
Visibilità : 
Base nubi : 
>= 8 km
>= 3000ft
5 / 8 km
1000 / 3000 ft
1500m / 5 km
500 / 1000 ft
800 / 1500m
200 / 500 ft
< 800m
< 200 ft
Simboli :   Temporali  Nebbia  Neve Forte  Precipitazioni Forti  Vento > 20 kt
SIGMETs :   Varie  Temporali  Ghiacco  Turbolenza  Onda orograficha  Ceneri Vulcaniche






- Altitudine del aeroporto : 16 ft
- Codice IATA : LPX


EVLA - Liepaja

ULTIMO METAR :
  • 080550Z AUTO VRB01KT 9999 NCD 06/06 Q1031

METARs OBSOLETI :
  • 080520Z AUTO 00000KT 0450 R24/P2000N R06/0900U BR FEW001/// BKN002/// 02/02 Q1031
  • 080450Z AUTO VRB02KT 9999 SCT002/// M00/M00 Q1031
  • 080420Z AUTO 00000KT 9999 FEW003/// M01/M01 Q1031
  • 080350Z AUTO 00000KT 9999 NCD M01/M01 Q1031
  • 080320Z AUTO VRB01KT 9999 NCD M01/M01 Q1030

TAF TAF EVLA
Valido dal 08 a 06 ore il 09 a 06 ore UTC


080503Z 0806/0906 VRB02KT CAVOK
BECMG 0807/0809 23010KT



MetMap, La meteo Aeronautica in un colpo d'occhio ! - Copyright ORBIFLY Dicembre 2007 - Disclaimer

ORBIFLY MET'MAP TEAM :

Programmazione e sviluppo : Alexandra Zaïnal
Concezione : Baudouin d'Aumeries
Aiuto per la programmazione : Marc-Olivier Méhu
Supporto tecnico e logistico : Manuel Goepfert
Aiuto per la traduzione : Arnaldo La Scala

Contatto : metmap@orbifly.com




FONTI E CREDITI :

   NOAA